sensor_id;sensor_type;location;lat;lon;timestamp;P1;durP1;ratioP1;P2;durP2;ratioP2
75798;SDS011;65035;44.726;37.764;2023-03-21T00:00:12;4.57;;;2.40;;
75798;SDS011;65035;44.726;37.764;2023-03-21T00:01:16;4.60;;;2.45;;
75798;SDS011;65035;44.726;37.764;2023-03-21T00:04:10;4.80;;;2.92;;
75798;SDS011;65035;44.726;37.764;2023-03-21T00:05:13;5.03;;;3.00;;
75798;SDS011;65035;44.726;37.764;2023-03-21T00:06:17;4.85;;;2.72;;
75798;SDS011;65035;44.726;37.764;2023-03-21T00:08:45;3.88;;;2.17;;
75798;SDS011;65035;44.726;37.764;2023-03-21T00:09:49;4.55;;;2.50;;
75798;SDS011;65035;44.726;37.764;2023-03-21T00:11:48;3.92;;;2.33;;
75798;SDS011;65035;44.726;37.764;2023-03-21T00:13:39;5.22;;;2.58;;
75798;SDS011;65035;44.726;37.764;2023-03-21T00:16:20;4.95;;;4.00;;
75798;SDS011;65035;44.726;37.764;2023-03-21T00:18:11;4.22;;;1.90;;
75798;SDS011;65035;44.726;37.764;2023-03-21T00:19:15;4.35;;;2.08;;
75798;SDS011;65035;44.726;37.764;2023-03-21T00:22:40;3.80;;;1.80;;
75798;SDS011;65035;44.726;37.764;2023-03-21T00:24:39;4.05;;;2.00;;
75798;SDS011;65035;44.726;37.764;2023-03-21T00:25:42;5.20;;;2.00;;
75798;SDS011;65035;44.726;37.764;2023-03-21T00:28:59;4.55;;;1.98;;
75798;SDS011;65035;44.726;37.764;2023-03-21T00:30:03;4.15;;;2.35;;
75798;SDS011;65035;44.726;37.764;2023-03-21T00:31:06;4.03;;;2.03;;
75798;SDS011;65035;44.726;37.764;2023-03-21T00:32:58;3.22;;;1.92;;
75798;SDS011;65035;44.726;37.764;2023-03-21T00:35:44;3.20;;;1.90;;
75798;SDS011;65035;44.726;37.764;2023-03-21T00:37:08;3.13;;;2.05;;
75798;SDS011;65035;44.726;37.764;2023-03-21T00:39:04;3.78;;;3.38;;
75798;SDS011;65035;44.726;37.764;2023-03-21T00:40:08;4.40;;;3.70;;
75798;SDS011;65035;44.726;37.764;2023-03-21T00:41:24;4.75;;;3.35;;
75798;SDS011;65035;44.726;37.764;2023-03-21T00:43:30;3.85;;;2.25;;
75798;SDS011;65035;44.726;37.764;2023-03-21T00:44:35;4.60;;;2.33;;
75798;SDS011;65035;44.726;37.764;2023-03-21T00:45:38;3.53;;;1.52;;
75798;SDS011;65035;44.726;37.764;2023-03-21T00:46:41;3.50;;;1.85;;
75798;SDS011;65035;44.726;37.764;2023-03-21T00:48:05;3.55;;;1.92;;
75798;SDS011;65035;44.726;37.764;2023-03-21T00:49:08;3.90;;;2.08;;
75798;SDS011;65035;44.726;37.764;2023-03-21T00:51:47;3.17;;;1.13;;
75798;SDS011;65035;44.726;37.764;2023-03-21T00:53:42;2.70;;;1.92;;
75798;SDS011;65035;44.726;37.764;2023-03-21T00:56:44;3.03;;;2.72;;
75798;SDS011;65035;44.726;37.764;2023-03-21T00:57:47;3.75;;;3.17;;
75798;SDS011;65035;44.726;37.764;2023-03-21T00:58:58;4.20;;;1.55;;
75798;SDS011;65035;44.726;37.764;2023-03-21T01:00:57;3.83;;;1.30;;
75798;SDS011;65035;44.726;37.764;2023-03-21T01:02:00;3.55;;;1.50;;
75798;SDS011;65035;44.726;37.764;2023-03-21T01:03:06;3.05;;;1.92;;
75798;SDS011;65035;44.726;37.764;2023-03-21T01:04:24;3.17;;;1.38;;
75798;SDS011;65035;44.726;37.764;2023-03-21T01:07:57;3.67;;;1.60;;
75798;SDS011;65035;44.726;37.764;2023-03-21T01:09:01;3.63;;;1.50;;
75798;SDS011;65035;44.726;37.764;2023-03-21T01:10:04;2.97;;;1.33;;
75798;SDS011;65035;44.726;37.764;2023-03-21T01:12:59;3.58;;;2.05;;
75798;SDS011;65035;44.726;37.764;2023-03-21T01:14:03;3.15;;;1.55;;
75798;SDS011;65035;44.726;37.764;2023-03-21T01:16:10;2.80;;;1.30;;
75798;SDS011;65035;44.726;37.764;2023-03-21T01:17:13;3.42;;;1.50;;
75798;SDS011;65035;44.726;37.764;2023-03-21T01:18:17;2.22;;;1.13;;
75798;SDS011;65035;44.726;37.764;2023-03-21T01:19:23;2.78;;;1.50;;
75798;SDS011;65035;44.726;37.764;2023-03-21T01:20:49;3.60;;;1.40;;
75798;SDS011;65035;44.726;37.764;2023-03-21T01:22:56;2.70;;;0.93;;
75798;SDS011;65035;44.726;37.764;2023-03-21T01:25:02;2.88;;;1.05;;
75798;SDS011;65035;44.726;37.764;2023-03-21T01:26:22;3.50;;;0.95;;
75798;SDS011;65035;44.726;37.764;2023-03-21T01:27:25;3.33;;;0.85;;
75798;SDS011;65035;44.726;37.764;2023-03-21T01:28:28;3.08;;;1.00;;
75798;SDS011;65035;44.726;37.764;2023-03-21T01:32:33;3.47;;;2.85;;
75798;SDS011;65035;44.726;37.764;2023-03-21T01:33:39;3.30;;;2.78;;
75798;SDS011;65035;44.726;37.764;2023-03-21T01:35:31;2.78;;;1.17;;
75798;SDS011;65035;44.726;37.764;2023-03-21T01:36:42;3.45;;;1.30;;
75798;SDS011;65035;44.726;37.764;2023-03-21T01:37:49;2.45;;;1.42;;
75798;SDS011;65035;44.726;37.764;2023-03-21T01:39:41;2.92;;;2.65;;
75798;SDS011;65035;44.726;37.764;2023-03-21T01:41:33;2.15;;;1.20;;
75798;SDS011;65035;44.726;37.764;2023-03-21T01:42:52;2.65;;;1.08;;
75798;SDS011;65035;44.726;37.764;2023-03-21T01:45:06;2.40;;;0.90;;
75798;SDS011;65035;44.726;37.764;2023-03-21T01:46:47;3.35;;;1.58;;
75798;SDS011;65035;44.726;37.764;2023-03-21T01:48:20;2.58;;;1.35;;
75798;SDS011;65035;44.726;37.764;2023-03-21T01:49:31;2.53;;;1.25;;
75798;SDS011;65035;44.726;37.764;2023-03-21T01:51:03;2.50;;;1.50;;
75798;SDS011;65035;44.726;37.764;2023-03-21T01:52:14;2.10;;;0.90;;
75798;SDS011;65035;44.726;37.764;2023-03-21T01:54:23;1.98;;;0.82;;
75798;SDS011;65035;44.726;37.764;2023-03-21T01:55:30;2.58;;;0.95;;
75798;SDS011;65035;44.726;37.764;2023-03-21T01:56:37;2.58;;;1.30;;
75798;SDS011;65035;44.726;37.764;2023-03-21T01:57:52;2.63;;;0.80;;
75798;SDS011;65035;44.726;37.764;2023-03-21T01:59:43;2.72;;;0.80;;
75798;SDS011;65035;44.726;37.764;2023-03-21T02:01:14;2.17;;;0.90;;
75798;SDS011;65035;44.726;37.764;2023-03-21T02:02:26;2.47;;;0.88;;
75798;SDS011;65035;44.726;37.764;2023-03-21T02:03:53;2.50;;;0.90;;
75798;SDS011;65035;44.726;37.764;2023-03-21T02:04:57;2.22;;;0.82;;
75798;SDS011;65035;44.726;37.764;2023-03-21T02:07:17;2.15;;;1.13;;
75798;SDS011;65035;44.726;37.764;2023-03-21T02:08:30;2.58;;;0.90;;
75798;SDS011;65035;44.726;37.764;2023-03-21T02:09:45;2.13;;;0.80;;
75798;SDS011;65035;44.726;37.764;2023-03-21T02:10:53;2.13;;;0.60;;
75798;SDS011;65035;44.726;37.764;2023-03-21T02:12:12;3.30;;;3.00;;
75798;SDS011;65035;44.726;37.764;2023-03-21T02:13:18;3.15;;;2.58;;
75798;SDS011;65035;44.726;37.764;2023-03-21T02:14:21;2.92;;;1.38;;
75798;SDS011;65035;44.726;37.764;2023-03-21T02:15:46;2.13;;;0.50;;
75798;SDS011;65035;44.726;37.764;2023-03-21T02:17:11;2.20;;;0.88;;
75798;SDS011;65035;44.726;37.764;2023-03-21T02:27:24;3.05;;;2.10;;
75798;SDS011;65035;44.726;37.764;2023-03-21T02:31:04;2.42;;;0.70;;
75798;SDS011;65035;44.726;37.764;2023-03-21T02:41:42;2.17;;;0.75;;
75798;SDS011;65035;44.726;37.764;2023-03-21T02:46:04;1.77;;;0.73;;
75798;SDS011;65035;44.726;37.764;2023-03-21T02:49:42;2.40;;;0.70;;
75798;SDS011;65035;44.726;37.764;2023-03-21T02:51:57;1.60;;;0.35;;
75798;SDS011;65035;44.726;37.764;2023-03-21T02:56:57;2.97;;;0.70;;
75798;SDS011;65035;44.726;37.764;2023-03-21T02:58:02;1.73;;;0.50;;
75798;SDS011;65035;44.726;37.764;2023-03-21T02:59:18;2.45;;;0.40;;
75798;SDS011;65035;44.726;37.764;2023-03-21T03:01:12;2.13;;;1.23;;
75798;SDS011;65035;44.726;37.764;2023-03-21T03:02:21;2.58;;;0.90;;
75798;SDS011;65035;44.726;37.764;2023-03-21T03:03:28;2.17;;;0.65;;
75798;SDS011;65035;44.726;37.764;2023-03-21T03:04:37;2.00;;;1.23;;
75798;SDS011;65035;44.726;37.764;2023-03-21T03:05:41;2.05;;;0.57;;
75798;SDS011;65035;44.726;37.764;2023-03-21T03:22:09;1.58;;;0.30;;
75798;SDS011;65035;44.726;37.764;2023-03-21T03:25:59;2.42;;;0.50;;
75798;SDS011;65035;44.726;37.764;2023-03-21T03:27:09;1.55;;;0.80;;
75798;SDS011;65035;44.726;37.764;2023-03-21T03:29:14;1.48;;;0.52;;
75798;SDS011;65035;44.726;37.764;2023-03-21T03:30:21;4.13;;;0.75;;
75798;SDS011;65035;44.726;37.764;2023-03-21T03:31:32;1.40;;;0.35;;
75798;SDS011;65035;44.726;37.764;2023-03-21T03:32:41;2.25;;;0.30;;
75798;SDS011;65035;44.726;37.764;2023-03-21T03:33:55;1.90;;;0.30;;
75798;SDS011;65035;44.726;37.764;2023-03-21T03:35:02;1.42;;;0.55;;
75798;SDS011;65035;44.726;37.764;2023-03-21T03:36:09;2.25;;;0.63;;
75798;SDS011;65035;44.726;37.764;2023-03-21T03:37:31;2.58;;;0.20;;
75798;SDS011;65035;44.726;37.764;2023-03-21T03:38:36;1.65;;;0.25;;
75798;SDS011;65035;44.726;37.764;2023-03-21T03:39:52;1.85;;;0.43;;
75798;SDS011;65035;44.726;37.764;2023-03-21T03:41:13;1.60;;;0.40;;
75798;SDS011;65035;44.726;37.764;2023-03-21T03:42:34;1.30;;;0.17;;
75798;SDS011;65035;44.726;37.764;2023-03-21T03:43:52;1.83;;;0.40;;
75798;SDS011;65035;44.726;37.764;2023-03-21T03:45:03;2.05;;;0.35;;
75798;SDS011;65035;44.726;37.764;2023-03-21T03:46:09;1.00;;;0.30;;
75798;SDS011;65035;44.726;37.764;2023-03-21T03:47:23;2.15;;;0.57;;
75798;SDS011;65035;44.726;37.764;2023-03-21T03:48:42;1.42;;;0.50;;
75798;SDS011;65035;44.726;37.764;2023-03-21T03:49:55;1.20;;;0.30;;
75798;SDS011;65035;44.726;37.764;2023-03-21T03:52:00;1.58;;;0.30;;
75798;SDS011;65035;44.726;37.764;2023-03-21T03:53:24;1.63;;;0.20;;
75798;SDS011;65035;44.726;37.764;2023-03-21T03:54:34;1.73;;;0.30;;
75798;SDS011;65035;44.726;37.764;2023-03-21T03:55:43;1.40;;;0.10;;
75798;SDS011;65035;44.726;37.764;2023-03-21T03:56:49;3.03;;;0.55;;
75798;SDS011;65035;44.726;37.764;2023-03-21T03:57:53;1.27;;;0.32;;
75798;SDS011;65035;44.726;37.764;2023-03-21T03:58:56;2.78;;;2.05;;
75798;SDS011;65035;44.726;37.764;2023-03-21T04:00:17;2.15;;;0.47;;
75798;SDS011;65035;44.726;37.764;2023-03-21T04:01:23;1.35;;;0.13;;
75798;SDS011;65035;44.726;37.764;2023-03-21T04:02:31;1.08;;;0.22;;
75798;SDS011;65035;44.726;37.764;2023-03-21T04:03:37;2.15;;;0.40;;
75798;SDS011;65035;44.726;37.764;2023-03-21T04:04:51;2.53;;;0.38;;
75798;SDS011;65035;44.726;37.764;2023-03-21T04:05:55;1.80;;;0.32;;
75798;SDS011;65035;44.726;37.764;2023-03-21T04:06:58;23.50;;;5.43;;
75798;SDS011;65035;44.726;37.764;2023-03-21T04:08:02;8.95;;;1.50;;
75798;SDS011;65035;44.726;37.764;2023-03-21T04:09:12;13.15;;;1.85;;
75798;SDS011;65035;44.726;37.764;2023-03-21T04:10:23;27.30;;;4.75;;
75798;SDS011;65035;44.726;37.764;2023-03-21T04:11:26;10.20;;;2.15;;
75798;SDS011;65035;44.726;37.764;2023-03-21T04:12:31;16.63;;;3.22;;
75798;SDS011;65035;44.726;37.764;2023-03-21T04:13:52;10.45;;;2.15;;
75798;SDS011;65035;44.726;37.764;2023-03-21T04:14:57;17.58;;;3.95;;
75798;SDS011;65035;44.726;37.764;2023-03-21T04:16:11;19.63;;;3.38;;
75798;SDS011;65035;44.726;37.764;2023-03-21T04:17:16;22.25;;;3.47;;
75798;SDS011;65035;44.726;37.764;2023-03-21T04:18:22;17.95;;;3.28;;
75798;SDS011;65035;44.726;37.764;2023-03-21T04:19:25;22.55;;;3.97;;
75798;SDS011;65035;44.726;37.764;2023-03-21T04:20:28;19.45;;;3.35;;
75798;SDS011;65035;44.726;37.764;2023-03-21T04:21:38;22.73;;;3.85;;
75798;SDS011;65035;44.726;37.764;2023-03-21T04:22:42;19.80;;;6.07;;
75798;SDS011;65035;44.726;37.764;2023-03-21T04:23:45;17.30;;;3.35;;
75798;SDS011;65035;44.726;37.764;2023-03-21T04:24:48;22.58;;;4.10;;
75798;SDS011;65035;44.726;37.764;2023-03-21T04:25:52;20.10;;;3.83;;
75798;SDS011;65035;44.726;37.764;2023-03-21T04:27:06;21.45;;;4.00;;
75798;SDS011;65035;44.726;37.764;2023-03-21T04:28:13;16.58;;;3.63;;
75798;SDS011;65035;44.726;37.764;2023-03-21T04:29:36;19.33;;;3.75;;
75798;SDS011;65035;44.726;37.764;2023-03-21T04:30:55;21.05;;;3.38;;
75798;SDS011;65035;44.726;37.764;2023-03-21T04:32:12;19.25;;;5.00;;
75798;SDS011;65035;44.726;37.764;2023-03-21T04:33:25;19.33;;;3.67;;
75798;SDS011;65035;44.726;37.764;2023-03-21T04:34:30;17.10;;;4.30;;
75798;SDS011;65035;44.726;37.764;2023-03-21T04:35:36;20.42;;;3.10;;
75798;SDS011;65035;44.726;37.764;2023-03-21T04:36:41;18.65;;;4.13;;
75798;SDS011;65035;44.726;37.764;2023-03-21T04:37:48;17.55;;;3.65;;
75798;SDS011;65035;44.726;37.764;2023-03-21T04:38:52;19.35;;;2.70;;
75798;SDS011;65035;44.726;37.764;2023-03-21T04:39:56;21.10;;;3.38;;
75798;SDS011;65035;44.726;37.764;2023-03-21T04:40:59;16.20;;;2.80;;
75798;SDS011;65035;44.726;37.764;2023-03-21T04:42:04;17.63;;;2.90;;
75798;SDS011;65035;44.726;37.764;2023-03-21T04:43:07;22.00;;;3.33;;
75798;SDS011;65035;44.726;37.764;2023-03-21T04:44:13;19.75;;;2.83;;
75798;SDS011;65035;44.726;37.764;2023-03-21T04:45:17;16.02;;;2.75;;
75798;SDS011;65035;44.726;37.764;2023-03-21T04:46:21;17.85;;;3.20;;
75798;SDS011;65035;44.726;37.764;2023-03-21T04:47:26;17.63;;;2.83;;
75798;SDS011;65035;44.726;37.764;2023-03-21T04:49:34;18.30;;;2.88;;
75798;SDS011;65035;44.726;37.764;2023-03-21T04:50:37;13.73;;;2.20;;
75798;SDS011;65035;44.726;37.764;2023-03-21T04:51:40;11.77;;;2.35;;
75798;SDS011;65035;44.726;37.764;2023-03-21T04:52:46;14.05;;;2.70;;
75798;SDS011;65035;44.726;37.764;2023-03-21T04:54:53;16.10;;;3.00;;
75798;SDS011;65035;44.726;37.764;2023-03-21T04:55:57;13.10;;;2.17;;
75798;SDS011;65035;44.726;37.764;2023-03-21T04:57:00;16.20;;;3.20;;
75798;SDS011;65035;44.726;37.764;2023-03-21T04:58:03;11.65;;;2.50;;
75798;SDS011;65035;44.726;37.764;2023-03-21T04:59:09;15.48;;;2.75;;
75798;SDS011;65035;44.726;37.764;2023-03-21T05:00:16;15.57;;;2.08;;
75798;SDS011;65035;44.726;37.764;2023-03-21T05:01:19;10.45;;;2.33;;
75798;SDS011;65035;44.726;37.764;2023-03-21T05:02:23;14.70;;;4.00;;
75798;SDS011;65035;44.726;37.764;2023-03-21T05:03:26;15.05;;;3.75;;
75798;SDS011;65035;44.726;37.764;2023-03-21T05:04:32;13.90;;;2.72;;
75798;SDS011;65035;44.726;37.764;2023-03-21T05:05:36;13.55;;;3.90;;
75798;SDS011;65035;44.726;37.764;2023-03-21T05:07:28;12.93;;;3.63;;
75798;SDS011;65035;44.726;37.764;2023-03-21T05:08:33;13.80;;;4.10;;
75798;SDS011;65035;44.726;37.764;2023-03-21T05:09:37;13.57;;;3.72;;
75798;SDS011;65035;44.726;37.764;2023-03-21T05:10:41;13.98;;;4.78;;
75798;SDS011;65035;44.726;37.764;2023-03-21T05:11:45;16.00;;;4.28;;
75798;SDS011;65035;44.726;37.764;2023-03-21T05:12:49;11.27;;;3.38;;
75798;SDS011;65035;44.726;37.764;2023-03-21T05:13:52;12.75;;;4.20;;
75798;SDS011;65035;44.726;37.764;2023-03-21T05:14:55;10.07;;;3.13;;
75798;SDS011;65035;44.726;37.764;2023-03-21T05:15:58;11.10;;;2.53;;
75798;SDS011;65035;44.726;37.764;2023-03-21T05:17:02;11.48;;;4.28;;
75798;SDS011;65035;44.726;37.764;2023-03-21T05:18:08;14.27;;;4.28;;
75798;SDS011;65035;44.726;37.764;2023-03-21T05:19:31;10.73;;;4.00;;
75798;SDS011;65035;44.726;37.764;2023-03-21T05:20:40;12.63;;;3.75;;
75798;SDS011;65035;44.726;37.764;2023-03-21T05:21:46;12.40;;;3.47;;
75798;SDS011;65035;44.726;37.764;2023-03-21T05:23:00;14.85;;;3.28;;
75798;SDS011;65035;44.726;37.764;2023-03-21T05:24:03;10.48;;;3.20;;
75798;SDS011;65035;44.726;37.764;2023-03-21T05:25:08;11.63;;;3.63;;
75798;SDS011;65035;44.726;37.764;2023-03-21T05:27:43;13.32;;;4.25;;
75798;SDS011;65035;44.726;37.764;2023-03-21T05:28:59;8.48;;;3.28;;
75798;SDS011;65035;44.726;37.764;2023-03-21T05:30:04;10.13;;;4.10;;
75798;SDS011;65035;44.726;37.764;2023-03-21T05:31:10;9.82;;;4.45;;
75798;SDS011;65035;44.726;37.764;2023-03-21T05:32:18;8.73;;;3.70;;
75798;SDS011;65035;44.726;37.764;2023-03-21T05:33:21;10.75;;;3.90;;
75798;SDS011;65035;44.726;37.764;2023-03-21T05:34:24;13.73;;;3.78;;
75798;SDS011;65035;44.726;37.764;2023-03-21T05:35:28;11.55;;;3.67;;
75798;SDS011;65035;44.726;37.764;2023-03-21T05:36:35;9.35;;;2.33;;
75798;SDS011;65035;44.726;37.764;2023-03-21T05:37:41;8.65;;;2.08;;
75798;SDS011;65035;44.726;37.764;2023-03-21T05:38:45;10.60;;;2.88;;
75798;SDS011;65035;44.726;37.764;2023-03-21T05:39:49;8.68;;;3.42;;
75798;SDS011;65035;44.726;37.764;2023-03-21T05:40:58;10.00;;;3.17;;
75798;SDS011;65035;44.726;37.764;2023-03-21T05:42:02;7.25;;;2.97;;
75798;SDS011;65035;44.726;37.764;2023-03-21T05:43:05;10.82;;;2.75;;
75798;SDS011;65035;44.726;37.764;2023-03-21T05:44:09;10.45;;;1.73;;
75798;SDS011;65035;44.726;37.764;2023-03-21T05:45:14;8.85;;;3.42;;
75798;SDS011;65035;44.726;37.764;2023-03-21T05:46:17;8.18;;;3.13;;
75798;SDS011;65035;44.726;37.764;2023-03-21T05:47:21;9.90;;;3.03;;
75798;SDS011;65035;44.726;37.764;2023-03-21T05:48:26;12.43;;;4.10;;
75798;SDS011;65035;44.726;37.764;2023-03-21T05:49:41;10.45;;;3.65;;
75798;SDS011;65035;44.726;37.764;2023-03-21T05:51:52;9.98;;;2.67;;
75798;SDS011;65035;44.726;37.764;2023-03-21T05:52:55;8.68;;;3.55;;
75798;SDS011;65035;44.726;37.764;2023-03-21T05:53:58;10.32;;;2.97;;
75798;SDS011;65035;44.726;37.764;2023-03-21T05:55:01;9.93;;;2.78;;
75798;SDS011;65035;44.726;37.764;2023-03-21T05:56:53;7.85;;;1.20;;
75798;SDS011;65035;44.726;37.764;2023-03-21T05:58:16;7.18;;;1.00;;
75798;SDS011;65035;44.726;37.764;2023-03-21T05:59:23;8.85;;;1.60;;
75798;SDS011;65035;44.726;37.764;2023-03-21T06:00:28;5.78;;;1.10;;
75798;SDS011;65035;44.726;37.764;2023-03-21T06:01:48;7.28;;;1.13;;
75798;SDS011;65035;44.726;37.764;2023-03-21T06:02:51;7.40;;;0.80;;
75798;SDS011;65035;44.726;37.764;2023-03-21T06:04:09;8.40;;;1.60;;
75798;SDS011;65035;44.726;37.764;2023-03-21T06:05:13;8.13;;;1.85;;
75798;SDS011;65035;44.726;37.764;2023-03-21T06:06:17;7.72;;;1.33;;
75798;SDS011;65035;44.726;37.764;2023-03-21T06:07:27;6.13;;;1.00;;
75798;SDS011;65035;44.726;37.764;2023-03-21T06:08:31;8.23;;;2.92;;
75798;SDS011;65035;44.726;37.764;2023-03-21T06:09:34;9.43;;;1.63;;
75798;SDS011;65035;44.726;37.764;2023-03-21T06:11:43;8.32;;;1.13;;
75798;SDS011;65035;44.726;37.764;2023-03-21T06:13:05;7.80;;;0.85;;
75798;SDS011;65035;44.726;37.764;2023-03-21T06:14:08;7.18;;;1.45;;
75798;SDS011;65035;44.726;37.764;2023-03-21T06:15:12;6.22;;;0.82;;
75798;SDS011;65035;44.726;37.764;2023-03-21T06:16:35;6.47;;;1.20;;
75798;SDS011;65035;44.726;37.764;2023-03-21T06:17:38;6.35;;;1.08;;
75798;SDS011;65035;44.726;37.764;2023-03-21T06:18:45;6.07;;;1.02;;
75798;SDS011;65035;44.726;37.764;2023-03-21T06:20:06;9.35;;;1.40;;
75798;SDS011;65035;44.726;37.764;2023-03-21T06:21:18;4.32;;;0.75;;
75798;SDS011;65035;44.726;37.764;2023-03-21T06:22:22;6.97;;;1.77;;
75798;SDS011;65035;44.726;37.764;2023-03-21T06:23:25;7.43;;;1.02;;
75798;SDS011;65035;44.726;37.764;2023-03-21T06:24:29;7.65;;;1.55;;
75798;SDS011;65035;44.726;37.764;2023-03-21T06:25:32;6.07;;;1.05;;
75798;SDS011;65035;44.726;37.764;2023-03-21T06:26:35;7.15;;;1.38;;
75798;SDS011;65035;44.726;37.764;2023-03-21T06:27:38;7.53;;;2.50;;
75798;SDS011;65035;44.726;37.764;2023-03-21T06:28:41;7.72;;;1.00;;
75798;SDS011;65035;44.726;37.764;2023-03-21T06:29:44;6.60;;;0.95;;
75798;SDS011;65035;44.726;37.764;2023-03-21T06:30:47;6.10;;;1.05;;
75798;SDS011;65035;44.726;37.764;2023-03-21T06:31:55;5.20;;;0.52;;
75798;SDS011;65035;44.726;37.764;2023-03-21T06:32:58;5.55;;;1.20;;
75798;SDS011;65035;44.726;37.764;2023-03-21T06:34:02;6.00;;;0.88;;
75798;SDS011;65035;44.726;37.764;2023-03-21T06:35:06;5.90;;;1.00;;
75798;SDS011;65035;44.726;37.764;2023-03-21T06:36:11;4.88;;;0.98;;
75798;SDS011;65035;44.726;37.764;2023-03-21T06:37:14;6.53;;;1.08;;
75798;SDS011;65035;44.726;37.764;2023-03-21T06:38:17;5.13;;;1.90;;
75798;SDS011;65035;44.726;37.764;2023-03-21T06:39:21;4.75;;;0.93;;
75798;SDS011;65035;44.726;37.764;2023-03-21T06:40:24;4.78;;;1.55;;
75798;SDS011;65035;44.726;37.764;2023-03-21T06:41:28;5.35;;;1.05;;
75798;SDS011;65035;44.726;37.764;2023-03-21T06:42:36;6.40;;;1.00;;
75798;SDS011;65035;44.726;37.764;2023-03-21T06:44:34;6.57;;;2.20;;
75798;SDS011;65035;44.726;37.764;2023-03-21T06:45:41;6.68;;;2.30;;
75798;SDS011;65035;44.726;37.764;2023-03-21T06:46:45;6.05;;;2.33;;
75798;SDS011;65035;44.726;37.764;2023-03-21T06:47:52;6.22;;;1.95;;
75798;SDS011;65035;44.726;37.764;2023-03-21T06:49:08;4.88;;;1.95;;
75798;SDS011;65035;44.726;37.764;2023-03-21T06:50:11;5.55;;;2.17;;
75798;SDS011;65035;44.726;37.764;2023-03-21T06:51:17;8.23;;;2.28;;
75798;SDS011;65035;44.726;37.764;2023-03-21T06:52:33;4.72;;;2.22;;
75798;SDS011;65035;44.726;37.764;2023-03-21T06:53:36;6.07;;;2.55;;
75798;SDS011;65035;44.726;37.764;2023-03-21T06:54:51;6.57;;;3.13;;
75798;SDS011;65035;44.726;37.764;2023-03-21T06:55:55;5.95;;;1.77;;
75798;SDS011;65035;44.726;37.764;2023-03-21T06:56:58;5.25;;;2.10;;
75798;SDS011;65035;44.726;37.764;2023-03-21T06:58:08;6.40;;;1.85;;
75798;SDS011;65035;44.726;37.764;2023-03-21T06:59:11;4.32;;;2.13;;
75798;SDS011;65035;44.726;37.764;2023-03-21T07:00:34;6.80;;;2.33;;
75798;SDS011;65035;44.726;37.764;2023-03-21T07:02:41;5.43;;;2.42;;
75798;SDS011;65035;44.726;37.764;2023-03-21T07:03:49;4.93;;;1.75;;
75798;SDS011;65035;44.726;37.764;2023-03-21T07:04:55;3.83;;;1.58;;
75798;SDS011;65035;44.726;37.764;2023-03-21T07:06:03;4.80;;;1.85;;
75798;SDS011;65035;44.726;37.764;2023-03-21T07:07:14;4.90;;;2.63;;
75798;SDS011;65035;44.726;37.764;2023-03-21T07:09:05;5.38;;;0.65;;
75798;SDS011;65035;44.726;37.764;2023-03-21T07:10:57;4.15;;;0.82;;
75798;SDS011;65035;44.726;37.764;2023-03-21T07:12:00;5.82;;;0.60;;
75798;SDS011;65035;44.726;37.764;2023-03-21T07:13:15;3.65;;;0.98;;
75798;SDS011;65035;44.726;37.764;2023-03-21T07:14:22;4.82;;;0.73;;
75798;SDS011;65035;44.726;37.764;2023-03-21T07:15:25;4.22;;;0.85;;
75798;SDS011;65035;44.726;37.764;2023-03-21T07:16:28;4.30;;;0.57;;
75798;SDS011;65035;44.726;37.764;2023-03-21T07:17:32;2.45;;;0.43;;
75798;SDS011;65035;44.726;37.764;2023-03-21T07:18:35;3.92;;;0.50;;
75798;SDS011;65035;44.726;37.764;2023-03-21T07:20:26;3.33;;;0.25;;
75798;SDS011;65035;44.726;37.764;2023-03-21T07:21:29;3.90;;;0.47;;
75798;SDS011;65035;44.726;37.764;2023-03-21T07:22:32;3.13;;;0.32;;
75798;SDS011;65035;44.726;37.764;2023-03-21T07:23:36;4.20;;;0.55;;
75798;SDS011;65035;44.726;37.764;2023-03-21T07:24:42;5.95;;;0.70;;
75798;SDS011;65035;44.726;37.764;2023-03-21T07:25:49;3.53;;;0.85;;
75798;SDS011;65035;44.726;37.764;2023-03-21T07:26:52;3.53;;;0.52;;
75798;SDS011;65035;44.726;37.764;2023-03-21T07:27:55;4.10;;;1.02;;
75798;SDS011;65035;44.726;37.764;2023-03-21T07:28:59;4.38;;;0.73;;
75798;SDS011;65035;44.726;37.764;2023-03-21T07:30:03;3.45;;;0.40;;
75798;SDS011;65035;44.726;37.764;2023-03-21T07:31:07;3.58;;;0.40;;
75798;SDS011;65035;44.726;37.764;2023-03-21T07:32:10;2.70;;;0.20;;
75798;SDS011;65035;44.726;37.764;2023-03-21T07:34:01;5.40;;;0.63;;
75798;SDS011;65035;44.726;37.764;2023-03-21T07:35:09;4.38;;;0.30;;
75798;SDS011;65035;44.726;37.764;2023-03-21T07:36:15;2.50;;;0.52;;
75798;SDS011;65035;44.726;37.764;2023-03-21T07:37:19;4.40;;;1.10;;
75798;SDS011;65035;44.726;37.764;2023-03-21T07:38:22;4.03;;;0.45;;
75798;SDS011;65035;44.726;37.764;2023-03-21T07:39:27;3.22;;;0.82;;
75798;SDS011;65035;44.726;37.764;2023-03-21T07:40:31;3.72;;;0.90;;
75798;SDS011;65035;44.726;37.764;2023-03-21T07:43:10;3.33;;;1.63;;
75798;SDS011;65035;44.726;37.764;2023-03-21T07:45:05;3.38;;;0.77;;
75798;SDS011;65035;44.726;37.764;2023-03-21T07:46:09;2.38;;;0.40;;
75798;SDS011;65035;44.726;37.764;2023-03-21T07:47:12;5.05;;;0.70;;
75798;SDS011;65035;44.726;37.764;2023-03-21T07:49:58;3.03;;;1.02;;
75798;SDS011;65035;44.726;37.764;2023-03-21T07:51:59;4.03;;;1.88;;
75798;SDS011;65035;44.726;37.764;2023-03-21T07:53:05;2.92;;;0.40;;
75798;SDS011;65035;44.726;37.764;2023-03-21T07:54:09;3.65;;;0.43;;
75798;SDS011;65035;44.726;37.764;2023-03-21T07:55:12;2.50;;;0.60;;
75798;SDS011;65035;44.726;37.764;2023-03-21T07:56:15;3.17;;;0.20;;
75798;SDS011;65035;44.726;37.764;2023-03-21T07:57:18;4.57;;;0.40;;
75798;SDS011;65035;44.726;37.764;2023-03-21T07:58:22;2.53;;;0.28;;
75798;SDS011;65035;44.726;37.764;2023-03-21T07:59:28;3.08;;;0.45;;
75798;SDS011;65035;44.726;37.764;2023-03-21T08:00:32;3.03;;;0.38;;
75798;SDS011;65035;44.726;37.764;2023-03-21T08:02:38;3.92;;;1.92;;
75798;SDS011;65035;44.726;37.764;2023-03-21T08:03:42;3.70;;;0.85;;
75798;SDS011;65035;44.726;37.764;2023-03-21T08:04:45;2.92;;;1.00;;
75798;SDS011;65035;44.726;37.764;2023-03-21T08:05:48;2.58;;;0.22;;
75798;SDS011;65035;44.726;37.764;2023-03-21T08:09:23;2.55;;;0.50;;
75798;SDS011;65035;44.726;37.764;2023-03-21T08:15:12;2.80;;;0.57;;
75798;SDS011;65035;44.726;37.764;2023-03-21T08:17:04;3.88;;;0.30;;
75798;SDS011;65035;44.726;37.764;2023-03-21T08:19:04;3.08;;;0.40;;
75798;SDS011;65035;44.726;37.764;2023-03-21T08:20:09;1.77;;;0.45;;
75798;SDS011;65035;44.726;37.764;2023-03-21T08:21:14;3.13;;;0.63;;
75798;SDS011;65035;44.726;37.764;2023-03-21T08:22:17;2.80;;;0.65;;
75798;SDS011;65035;44.726;37.764;2023-03-21T08:23:20;2.08;;;0.30;;
75798;SDS011;65035;44.726;37.764;2023-03-21T08:24:24;2.20;;;0.50;;
75798;SDS011;65035;44.726;37.764;2023-03-21T08:26:16;2.03;;;0.10;;
75798;SDS011;65035;44.726;37.764;2023-03-21T08:27:20;4.25;;;0.40;;
75798;SDS011;65035;44.726;37.764;2023-03-21T08:29:59;2.15;;;0.10;;
75798;SDS011;65035;44.726;37.764;2023-03-21T08:31:08;3.25;;;0.68;;
75798;SDS011;65035;44.726;37.764;2023-03-21T08:32:12;2.03;;;0.13;;
75798;SDS011;65035;44.726;37.764;2023-03-21T08:33:15;2.42;;;0.57;;
75798;SDS011;65035;44.726;37.764;2023-03-21T08:37:47;1.63;;;0.22;;
75798;SDS011;65035;44.726;37.764;2023-03-21T08:39:38;2.05;;;0.22;;
75798;SDS011;65035;44.726;37.764;2023-03-21T08:40:41;2.03;;;0.20;;
75798;SDS011;65035;44.726;37.764;2023-03-21T08:41:44;3.25;;;0.28;;
75798;SDS011;65035;44.726;37.764;2023-03-21T08:43:43;2.10;;;0.30;;